Terminal Aerodrome Forecast
Issued by NWS Wilmington, NC

Home | Current Version | Previous Version | Text Only | Print | Product List | Glossary On
Versions: 1 2 3 4 5 6 7 8 9 10 11 12 13 14 15 16 17 18 19 20 21 22 23 24 25
000
FTUS42 KILM 312328 CCA
TAFILM
TAF COR
KILM 312328Z 0100/0124 VRB04KT P6SM -SHRA FEW020 SCT050 BKN100
      TEMPO 0100/0103 4SM -SHRA SCT020 BKN050
     FM010300 VRB03KT 6SM BR VCSH SCT040 BKN150
     FM010800 VRB03KT 4SM BR SCT008 BKN040
     FM011100 VRB04KT P6SM SCT050 BKN100
     FM011300 VRB04KT P6SM SCT060 BKN100
      TEMPO 0113/0117 5SM -SHRA BKN050
     FM011700 16006KT P6SM VCSH BKN040 BKN100
      TEMPO 0117/0121 5SM -TSRA BKN035CB
     FM012100 17010KT P6SM SCT040 BKN080=

USA.gov is the U.S. government's official web portal to all federal, state and local government web resources and services.